Latest Coastal Weather Observations for Ngayawili (Elcho Island)

IDD60701

Issued at 1:41 pm CST Thursday 23 March 2017 (issued every 10 minutes, with the page automatically refreshed every 10 minutes)

About coastal observations | Map of coastal stations | Coastal observations for NT | Marine services | Other Formats
Station Details ID: 014517 Name: NGAYAWILI Lat: -12.00 Lon: 135.57 Height: 8.1 m
Data from the previous 72 hours. | See also: Recent months at Ngayawili (Elcho Island)
Date/Time
CST
Temp
°C
Wind Pressure Rain since
9am
mm
Weather Cloud Vis
km
Sea
Height
m
Swell
Dir  Spd
kts
Gust
kts
hPa Trend Height
m
Period
s
Dir
23/01:30pm 30.0 NW 10 13 1008.9 - 0.2 - - - - - - -
23/01:00pm 31.4 NW 7 9 1009.3 - 0.2 - - - - - - -
23/12:30pm 30.9 NW 7 9 1009.7 - 0.2 - - - - - - -
23/12:00pm 31.5 NW 7 9 1009.9 - 0.2 - - - - - - -
23/11:30am 30.8 NNW 7 9 1010.0 - 0.2 - - - - - - -
23/11:00am 30.4 NNW 7 8 1010.1 - 0.2 - - - - - - -
23/10:30am 30.5 NNW 6 8 1010.4 - 0.2 - - - - - - -
23/10:00am 30.1 NNW 7 9 1010.5 - 0.2 - - - - - - -
23/09:30am 29.7 NW 6 8 1010.7 - 0.0 - - - - - - -
23/09:00am 28.8 WNW 7 9 1010.6 - 18.4 - - - - - - -
23/08:30am 28.7 NW 5 7 1010.3 - 18.4 - - - - - - -
23/08:00am 27.8 CALM 0 0 1009.9 - 18.4 - - - - - - -
23/07:30am 26.6 CALM 0 0 1009.9 - 18.4 - - - - - - -
23/07:00am 25.7 SSE 3 5 1009.7 - 18.4 - - - - - - -
23/06:30am 26.2 SSW 7 9 1009.3 - 18.4 - - - - - - -
23/06:00am 25.2 SSW 7 10 1009.1 - 18.4 Recent precip. - - - - - -
23/05:30am 25.2 S 7 13 1008.8 - 18.4 - - - - - - -
23/05:00am 25.4 SSE 8 11 1008.6 - 17.6 - - - - - - -
23/04:30am 27.1 NW 8 11 1008.5 - 17.4 - - - - - - -
23/04:00am 27.9 NW 15 17 1008.1 - 16.6 - - - - - - -
23/03:30am 27.6 W 7 12 1008.2 - 16.6 - - - - - - -
23/03:00am 26.6 NNW 11 18 1008.5 - 5.8 Rain - - - - - -
23/02:30am 28.0 WNW 15 21 1008.3 - 0.0 - - - - - - -
23/02:29am 27.7 WNW 15 21 1008.3 - 0.0 - - - - - - -
23/02:00am 29.0 WNW 7 8 1008.7 - 0.0 - - - - - - -
23/01:30am 29.0 WNW 9 10 1008.8 - 0.0 - - - - - - -
23/01:00am 29.0 WNW 8 10 1009.1 - 0.0 - - - - - - -
23/12:30am 29.0 WNW 7 9 1009.6 - 0.0 - - - - - - -
23/12:00am 29.1 WNW 7 8 1009.8 - 0.0 - - - - - - -
 
Date/Time
CST
Temp
°C
Wind Pressure Rain since
9am
mm
Weather Cloud Vis
km
Sea
Height
m
Swell
Dir  Spd
kts
Gust
kts
hPa Trend Height
m
Period
s
Dir
22/11:30pm 29.0 NW 7 8 1010.0 - 0.0 - - - - - - -
22/11:00pm 29.1 WNW 7 9 1010.3 - 0.0 - - - - - - -
22/10:30pm 29.1 WNW 7 8 1010.0 - 0.0 - - - - - - -
22/10:00pm 29.0 NW 7 8 1009.8 - 0.0 - - - - - - -
22/09:30pm 29.0 WNW 5 7 1009.7 - 0.0 - - - - - - -
22/09:00pm 28.9 W 5 6 1009.4 - 0.0 - - - - - - -
22/08:30pm 28.8 W 5 7 1009.0 - 0.0 - - - - - - -
22/08:00pm 28.9 W 5 7 1008.8 - 0.0 - - - - - - -
22/07:30pm 28.9 W 7 9 1008.1 - 0.0 - - - - - - -
22/07:00pm 28.6 W 6 7 1007.8 - 0.0 - - - - - - -
22/06:30pm 28.9 W 6 8 1007.5 - 0.0 - - - - - - -
22/06:00pm 29.1 W 5 6 1007.4 - 0.0 - - - - - - -
22/05:30pm 29.3 W 7 9 1007.3 - 0.0 - - - - - - -
22/05:00pm 29.5 WNW 11 13 1007.1 - 0.0 - - - - - - -
22/04:30pm 29.5 WNW 13 17 1007.2 - 0.0 - - - - - - -
22/04:00pm 30.6 NW 11 14 1006.8 - 0.0 - - - - - - -
22/03:30pm 31.5 NW 10 12 1007.3 - 0.0 - - - - - - -
22/03:00pm 30.8 NW 9 11 1007.8 - 0.0 - - - - - - -
22/02:30pm 31.0 WNW 9 11 1007.9 - 0.0 - - - - - - -
22/02:00pm 31.0 WNW 8 9 1008.2 - 0.0 - - - - - - -
22/01:30pm 30.9 NW 9 10 1008.5 - 0.0 - - - - - - -
22/01:00pm 31.7 NW 9 11 1008.9 - 0.0 - - - - - - -
22/12:30pm 31.0 NW 8 9 1009.5 - 0.0 - - - - - - -
22/12:00pm 30.8 NNW 7 9 1009.9 - 0.0 - - - - - - -
22/11:30am 30.5 NW 5 7 1010.3 - 0.0 - - - - - - -
22/11:00am 30.2 NW 5 7 1010.6 - 0.0 - - - - - - -
22/10:30am 29.8 NNW 2 5 1010.8 - 0.0 - - - - - - -
22/10:00am 29.7 NW 3 4 1010.9 - 0.0 - - - - - - -
22/09:30am 28.9 CALM 0 0 1010.7 - 0.0 - - - - - - -
22/09:00am 28.5 CALM 0 0 1010.5 - 1.4 Recent precip. - - - - - -
22/08:30am 27.0 SE 2 5 1010.5 - 1.4 - - - - - - -
22/08:00am 26.1 CALM 0 0 1010.2 - 1.2 - - - - - - -
22/07:30am 25.9 SSE 3 5 1009.9 - 0.8 - - - - - - -
22/07:00am 25.5 SE 5 5 1009.4 - 0.8 - - - - - - -
22/06:30am 25.2 SE 5 6 1009.3 - 0.8 - - - - - - -
22/06:00am 25.1 SE 4 5 1009.1 - 0.8 - - - - - - -
22/05:30am 25.2 SE 5 6 1008.8 - 0.8 - - - - - - -
22/05:00am 25.3 SE 4 5 1008.7 - 0.8 - - - - - - -
22/04:30am 25.0 ESE 4 4 1008.5 - 0.8 - - - - - - -
22/04:00am 25.1 SSE 4 5 1008.2 - 0.8 - - - - - - -
22/03:30am 25.2 SSE 4 5 1008.1 - 0.8 - - - - - - -
22/03:00am 25.2 SSE 3 5 1008.6 - 0.8 - - - - - - -
22/02:30am 25.3 SE 5 6 1008.7 - 0.8 - - - - - - -
22/02:00am 25.2 SE 5 6 1008.9 - 0.8 - - - - - - -
22/01:30am 25.3 SE 5 5 1009.1 - 0.8 - - - - - - -
22/01:00am 25.2 SSE 4 5 1009.3 - 0.8 - - - - - - -
22/12:30am 25.2 CALM 0 0 1009.7 - 0.8 - - - - - - -
22/12:00am 25.2 SE 1 3 1009.8 - 0.8 - - - - - - -
 
Date/Time
CST
Temp
°C
Wind Pressure Rain since
9am
mm
Weather Cloud Vis
km
Sea
Height
m
Swell
Dir  Spd
kts
Gust
kts
hPa Trend Height
m
Period
s
Dir
21/11:30pm 25.5 ESE 3 4 1010.0 - 0.8 - - - - - - -
21/11:00pm 25.5 ESE 3 5 1010.1 - 0.8 - - - - - - -
21/10:30pm 25.8 SSE 4 5 1010.0 - 0.8 - - - - - - -
21/10:00pm 26.2 S 3 5 1010.0 - 0.8 - - - - - - -
21/09:30pm 26.4 S 6 8 1009.9 - 0.8 - - - - - - -
21/09:00pm 27.0 SSE 5 7 1009.8 - 0.8 - - - - - - -
21/08:30pm 27.8 W 5 6 1009.3 - 0.8 - - - - - - -
21/08:00pm 27.8 W 5 7 1008.9 - 0.8 - - - - - - -
21/07:30pm 27.8 WNW 5 6 1008.4 - 0.8 - - - - - - -
21/07:00pm 27.8 NW 7 8 1008.3 - 0.8 - - - - - - -
21/06:30pm 27.8 NW 7 9 1008.2 - 0.8 - - - - - - -
21/06:00pm 27.8 NW 11 14 1008.2 - 0.8 - - - - - - -
21/05:30pm 28.1 WNW 13 15 1007.8 - 0.8 - - - - - - -
21/05:00pm 28.5 NW 14 16 1007.6 - 0.8 - - - - - - -
21/04:30pm 29.5 NNW 10 12 1007.5 - 0.8 - - - - - - -
21/04:00pm 30.8 N 8 10 1007.2 - 0.8 - - - - - - -
21/03:30pm 29.4 N 8 9 1006.9 - 0.8 - - - - - - -
21/03:00pm 29.6 N 7 8 1007.3 - 0.8 - - - - - - -
21/02:30pm 30.0 N 6 8 1007.2 - 0.8 - - - - - - -
21/02:00pm 29.4 N 8 11 1007.6 - 0.8 - - - - - - -
21/01:30pm 29.2 N 7 9 1008.0 - 0.8 - - - - - - -
21/01:00pm 28.3 NE 4 6 1008.4 - 0.8 - - - - - - -
21/12:30pm 28.1 ESE 1 4 1008.7 - 0.8 - - - - - - -
21/12:00pm 28.4 CALM 0 0 1009.3 - 0.4 Rain - - - - - -
21/11:30am 28.8 NW 3 5 1009.7 - 0.0 - - - - - - -
21/11:00am 29.3 WNW 6 7 1010.3 - 0.0 - - - - - - -
21/10:30am 29.3 WSW 6 7 1010.1 - 0.0 - - - - - - -
21/10:00am 29.2 SSW 4 6 1010.2 - 0.0 - - - - - - -
21/09:30am 29.9 SSE 1 4 1010.2 - 0.0 - - - - - - -
21/09:00am 28.4 ESE 4 7 1010.2 - 20.2 - - - - - - -
21/08:30am 27.8 SSE 7 10 1010.1 - 20.2 - - - - - - -
21/08:00am 26.3 SE 7 9 1009.9 - 20.2 - - - - - - -
21/07:30am 26.4 SE 6 7 1009.5 - 20.2 - - - - - - -
21/07:00am 28.1 W 6 8 1009.0 - 20.2 - - - - - - -
21/06:30am 28.0 W 8 9 1008.7 - 20.2 - - - - - - -
21/06:00am 28.0 WNW 8 11 1008.4 - 20.2 - - - - - - -
21/05:30am 28.0 WNW 8 11 1008.2 - 20.2 - - - - - - -
21/05:00am 27.9 WNW 9 11 1007.7 - 20.2 - - - - - - -
21/04:30am 27.8 WNW 9 11 1007.4 - 20.2 - - - - - - -
21/04:00am 27.7 WNW 10 12 1007.1 - 20.2 - - - - - - -
21/03:30am 27.8 WNW 10 12 1006.8 - 20.2 - - - - - - -
21/03:00am 27.7 WNW 9 10 1006.9 - 20.2 - - - - - - -
21/02:30am 27.9 WNW 8 11 1007.1 - 20.2 - - - - - - -
21/02:00am 27.7 W 8 10 1007.7 - 20.2 - - - - - - -
21/01:30am 27.5 W 9 13 1008.1 - 20.2 - - - - - - -
21/01:00am 27.6 W 11 13 1008.3 - 20.2 - - - - - - -
21/12:30am 27.1 SW 11 13 1008.5 - 20.2 - - - - - - -
21/12:00am 26.9 SW 13 15 1008.9 - 20.2 - - - - - - -
 
Date/Time
CST
Temp
°C
Wind Pressure Rain since
9am
mm
Weather Cloud Vis
km
Sea
Height
m
Swell
Dir  Spd
kts
Gust
kts
hPa Trend Height
m
Period
s
Dir
20/11:30pm 28.6 WNW 12 14 1009.0 - 20.2 - - - - - - -
20/11:00pm 28.5 WNW 10 11 1009.2 - 20.2 - - - - - - -
20/10:30pm 28.4 WNW 7 9 1009.4 - 20.2 - - - - - - -
20/10:00pm 28.4 WNW 9 11 1009.4 - 20.2 - - - - - - -
20/09:30pm 28.3 NNW 13 15 1009.6 - 20.2 - - - - - - -
20/09:00pm 28.0 N 10 17 1009.4 - 20.2 - - - - - - -
20/08:30pm 28.2 N 10 11 1009.1 - 20.2 - - - - - - -
20/08:00pm 26.8 WSW 7 12 1008.8 - 20.2 - - - - - - -
20/07:30pm 26.3 E 5 16 1008.9 - 12.0 - - - - - - -
20/07:00pm 28.2 NW 5 7 1008.3 - 0.6 - - - - - - -
20/06:30pm 28.1 N 3 5 1007.8 - 0.6 - - - - - - -
20/06:00pm 28.3 N 6 8 1007.1 - 0.6 - - - - - - -
20/05:30pm 28.3 NNW 10 12 1006.9 - 0.6 - - - - - - -
20/05:00pm 28.8 N 9 11 1006.8 - 0.6 - - - - - - -
20/04:30pm 29.4 N 9 12 1006.7 - 0.6 - - - - - - -
20/04:00pm 29.5 N 10 12 1006.3 - 0.6 - - - - - - -
20/03:30pm 29.7 N 11 13 1006.3 - 0.6 - - - - - - -
20/03:00pm 29.4 N 11 13 1006.7 - 0.6 - - - - - - -
20/02:30pm 29.1 N 10 11 1007.1 - 0.6 - - - - - - -
20/02:00pm 28.9 N 10 11 1007.4 - 0.6 - - - - - - -

Other Formats:

Comma delimited format used in spreadsheet applications
http://www.bom.gov.au/fwo/IDD60701/IDD60701.95146.axf

JavaScript Object Notation format (JSON) in row-major order
http://www.bom.gov.au/fwo/IDD60701/IDD60701.95146.json